Terminal Aerodrome Forecast
Issued by NWS Spokane, WA

Home | Current Version | Previous Version | Text Only | Print | Product List | Glossary On
Versions: 1 2 3 4 5 6 7 8 9 10 11 12 13 14 15 16 17 18 19 20 21 22 23 24 25 26 27 28 29 30 31 32 33 34 35 36 37
000
FTUS46 KOTX 252335
TAFLWS
TAF
KLWS 252335Z 2600/2624 VRB04KT P6SM SCT060 BKN120
     FM260600 15004KT P6SM FEW070 BKN150
     FM261300 VRB03KT P6SM SCT070 BKN100
     FM261800 30006KT P6SM VCSH SCT080 BKN110=

USA.gov is the U.S. government's official web portal to all federal, state and local government web resources and services.